Flight Track Log - Related Links

Times and Time Zones

All times are in EDT time to prevent confusion due to time zone crossing. See the ASQ4633 flight status page for this flight to view local times or setup timezone preferences in your user account.

Time Position Orientation Groundspeed Altitude Reporting Facility
EDT Latitude Longitude Course Direction KTS MPH feet Rate Location/Type
Sat 11:00:15 PM 41.9167 -87.8833 90° East 248 285 3,700  Level Chicago TRACON
Sat 11:00:48 PM 41.9111 -87.8344 99° East 280 322 4,200 2,065 Climbing Chicago Center
Sat 11:01:48 PM 41.9158 -87.7208 87° East 299 344 6,900 2,281 Climbing Chicago Center
Sat 11:02:00 PM 41.9488 -87.3497 95° East  Level FlightAware
Sat 11:02:49 PM 41.9214 -87.6089 86° East 301 346 8,800  Level Chicago Center
Sat 11:03:00 PM 41.9390 -87.2125 95° East  Level FlightAware
Sat 11:03:50 PM 41.9267 -87.4908 87° East 313 360 11,000  Level Chicago Center
Sat 11:04:00 PM 41.9333 -87.0749 90° East  Level FlightAware
Sat 11:04:50 PM 41.9319 -87.3683 87° East 325 374 12,900  Level Chicago Center
Sat 11:05:00 PM 41.9333 -86.9481 90° East  Level FlightAware
Sat 11:05:52 PM 41.9381 -87.2431 86° East 336 387 14,600  Level Chicago Center
Sat 11:06:52 PM 41.9425 -87.1136 87° East 345 397 15,800 1,200 Climbing Chicago Center
Sat 11:07:52 PM 41.9461 -86.9811 88° East 354 407 17,000 942 Climbing Chicago Center
Sat 11:08:53 PM 41.9236 -86.8542 103° East 357 411 17,700 639 Climbing Chicago Center
Sat 11:09:54 PM 41.8603 -86.7414 127° Southeast 374 430 18,300 843 Climbing Chicago Center
Sat 11:10:54 PM 41.7892 -86.6139 127° Southeast 393 452 19,400 1,041 Climbing Chicago Center
Sat 11:11:55 PM 41.7206 -86.4922 127° Southeast 407 468 20,400 1,033 Climbing Chicago Center
Sat 11:12:56 PM 41.6508 -86.3678 127° Southeast 418 481 21,500 893 Climbing Chicago Center
Sat 11:13:56 PM 41.5797 -86.2444 128° Southeast 421 484 22,200 645 Climbing Chicago Center
Sat 11:14:57 PM 41.5069 -86.1150 127° Southeast 436 502 22,800 264 Climbing Chicago Center
Sat 11:16:58 PM 41.3539 -85.8481 127° Southeast 463 533 23,000 66 Climbing Chicago Center
Sat 11:17:59 PM 41.2581 -85.6819 127° Southeast 477 549 23,000  Level Chicago Center
Sat 11:18:59 PM 41.1758 -85.5442 128° Southeast 481 554 23,000  Level Chicago Center
Sat 11:20:00 PM 41.0744 -85.4344 141° Southeast 473 544 23,000  Level Chicago Center
Sat 11:21:01 PM 40.9733 -85.3272 141° Southeast 469 540 23,000  Level Chicago Center
Sat 11:22:01 PM 40.8728 -85.2169 140° Southeast 471 542 23,000  Level Chicago Center
Sat 11:23:02 PM 40.7714 -85.1114 142° Southeast 469 540 23,000  Level Chicago Center
Sat 11:24:02 PM 40.6686 -85.0050 142° Southeast 470 541 23,000 -595 Level Chicago Center
Sat 11:25:03 PM 40.5744 -84.9072 142° Southeast 464 534 21,800 -1,884 Descending Chicago Center
Sat 11:26:03 PM 40.4808 -84.8100 142° Southeast 442 509 19,200 -2,678 Descending Chicago Center
Sat 11:27:04 PM 40.3936 -84.7183 141° Southeast 413 475 16,400 -2,826 Descending Chicago Center
Sat 11:28:04 PM 40.3153 -84.6153 135° Southeast 403 464 13,500 -2,852 Descending Chicago Center
Sat 11:29:06 PM 40.2319 -84.5017 134° Southeast 394 453 10,600 -1,854 Descending Indianapolis Center
Sat 11:30:07 PM 40.1650 -84.4128 135° Southeast 349 402 9,700 -1,700 Descending Indianapolis Center
Sat 11:32:06 PM 40.0569 -84.2542 132° Southeast 298 343 5,500 -2,320 Descending Chicago Center
Sat 11:33:08 PM 40.0067 -84.1867 134° Southeast 274 315 2,700 -1,525 Descending Indianapolis Center
Sat 11:34:08 PM 39.9686 -84.1583 150° Southeast 199 229 2,400 -300 Descending Indianapolis Center

Login

Don't have an account? Register now (free) for customized features, flight alerts, and more!